sensor_id;sensor_type;location;lat;lon;timestamp;P1;durP1;ratioP1;P2;durP2;ratioP2
59127;SDS011;44912;52.754;5.994;2024-03-02T00:00:21;5.88;;;2.40;;
59127;SDS011;44912;52.754;5.994;2024-03-02T00:02:48;4.53;;;2.20;;
59127;SDS011;44912;52.754;5.994;2024-03-02T00:05:18;5.43;;;2.25;;
59127;SDS011;44912;52.754;5.994;2024-03-02T00:07:45;4.47;;;2.10;;
59127;SDS011;44912;52.754;5.994;2024-03-02T00:10:19;4.43;;;2.30;;
59127;SDS011;44912;52.754;5.994;2024-03-02T00:12:50;5.97;;;2.75;;
59127;SDS011;44912;52.754;5.994;2024-03-02T00:18:08;4.55;;;2.25;;
59127;SDS011;44912;52.754;5.994;2024-03-02T00:20:38;6.20;;;2.17;;
59127;SDS011;44912;52.754;5.994;2024-03-02T00:23:05;4.57;;;2.42;;
59127;SDS011;44912;52.754;5.994;2024-03-02T00:25:38;5.22;;;2.72;;
59127;SDS011;44912;52.754;5.994;2024-03-02T00:28:21;4.55;;;2.30;;
59127;SDS011;44912;52.754;5.994;2024-03-02T00:31:11;4.53;;;2.50;;
59127;SDS011;44912;52.754;5.994;2024-03-02T00:33:44;5.30;;;2.20;;
59127;SDS011;44912;52.754;5.994;2024-03-02T00:36:15;4.23;;;2.10;;
59127;SDS011;44912;52.754;5.994;2024-03-02T00:38:48;4.80;;;2.30;;
59127;SDS011;44912;52.754;5.994;2024-03-02T00:41:16;4.43;;;2.23;;
59127;SDS011;44912;52.754;5.994;2024-03-02T00:46:35;5.07;;;2.05;;
59127;SDS011;44912;52.754;5.994;2024-03-02T00:49:12;4.68;;;2.50;;
59127;SDS011;44912;52.754;5.994;2024-03-02T00:51:41;3.28;;;1.85;;
59127;SDS011;44912;52.754;5.994;2024-03-02T00:54:13;3.83;;;1.98;;
59127;SDS011;44912;52.754;5.994;2024-03-02T00:56:40;4.78;;;2.33;;
59127;SDS011;44912;52.754;5.994;2024-03-02T00:59:07;4.55;;;2.05;;
59127;SDS011;44912;52.754;5.994;2024-03-02T01:01:33;5.82;;;2.20;;
59127;SDS011;44912;52.754;5.994;2024-03-02T01:03:59;4.70;;;2.20;;
59127;SDS011;44912;52.754;5.994;2024-03-02T01:06:25;4.53;;;2.10;;
59127;SDS011;44912;52.754;5.994;2024-03-02T01:08:51;5.10;;;2.20;;
59127;SDS011;44912;52.754;5.994;2024-03-02T01:11:17;5.22;;;2.28;;
59127;SDS011;44912;52.754;5.994;2024-03-02T01:13:43;4.75;;;2.10;;
59127;SDS011;44912;52.754;5.994;2024-03-02T01:16:09;5.07;;;2.10;;
59127;SDS011;44912;52.754;5.994;2024-03-02T01:18:35;4.80;;;1.90;;
59127;SDS011;44912;52.754;5.994;2024-03-02T01:21:01;4.28;;;2.20;;
59127;SDS011;44912;52.754;5.994;2024-03-02T01:23:26;3.97;;;2.05;;
59127;SDS011;44912;52.754;5.994;2024-03-02T01:25:52;4.18;;;2.15;;
59127;SDS011;44912;52.754;5.994;2024-03-02T01:28:18;4.10;;;1.90;;
59127;SDS011;44912;52.754;5.994;2024-03-02T01:30:45;4.97;;;1.77;;
59127;SDS011;44912;52.754;5.994;2024-03-02T01:33:11;3.78;;;1.90;;
59127;SDS011;44912;52.754;5.994;2024-03-02T01:35:37;4.70;;;2.10;;
59127;SDS011;44912;52.754;5.994;2024-03-02T01:38:03;5.00;;;1.85;;
59127;SDS011;44912;52.754;5.994;2024-03-02T01:40:31;4.65;;;1.70;;
59127;SDS011;44912;52.754;5.994;2024-03-02T01:42:57;4.57;;;2.00;;
59127;SDS011;44912;52.754;5.994;2024-03-02T01:45:23;4.60;;;1.85;;
59127;SDS011;44912;52.754;5.994;2024-03-02T01:47:49;3.22;;;1.67;;
59127;SDS011;44912;52.754;5.994;2024-03-02T01:50:15;3.72;;;1.70;;
59127;SDS011;44912;52.754;5.994;2024-03-02T01:52:49;4.13;;;1.67;;
59127;SDS011;44912;52.754;5.994;2024-03-02T01:55:15;3.00;;;1.50;;
59127;SDS011;44912;52.754;5.994;2024-03-02T01:57:40;3.67;;;1.70;;
59127;SDS011;44912;52.754;5.994;2024-03-02T02:00:06;3.45;;;1.50;;
59127;SDS011;44912;52.754;5.994;2024-03-02T02:02:32;3.50;;;1.50;;
59127;SDS011;44912;52.754;5.994;2024-03-02T02:04:58;4.00;;;1.70;;
59127;SDS011;44912;52.754;5.994;2024-03-02T02:07:23;4.20;;;1.60;;
59127;SDS011;44912;52.754;5.994;2024-03-02T02:09:49;3.65;;;1.60;;
59127;SDS011;44912;52.754;5.994;2024-03-02T02:12:15;4.40;;;1.63;;
59127;SDS011;44912;52.754;5.994;2024-03-02T02:14:46;4.25;;;1.42;;
59127;SDS011;44912;52.754;5.994;2024-03-02T02:17:14;3.70;;;1.35;;
59127;SDS011;44912;52.754;5.994;2024-03-02T02:19:40;3.60;;;1.40;;
59127;SDS011;44912;52.754;5.994;2024-03-02T02:22:06;4.40;;;1.70;;
59127;SDS011;44912;52.754;5.994;2024-03-02T02:24:32;4.07;;;1.73;;
59127;SDS011;44912;52.754;5.994;2024-03-02T02:26:57;4.38;;;1.40;;
59127;SDS011;44912;52.754;5.994;2024-03-02T02:29:23;4.50;;;1.60;;
59127;SDS011;44912;52.754;5.994;2024-03-02T02:31:48;3.55;;;1.40;;
59127;SDS011;44912;52.754;5.994;2024-03-02T02:34:14;2.90;;;1.20;;
59127;SDS011;44912;52.754;5.994;2024-03-02T02:36:40;4.97;;;1.67;;
59127;SDS011;44912;52.754;5.994;2024-03-02T02:39:08;2.72;;;1.33;;
59127;SDS011;44912;52.754;5.994;2024-03-02T02:41:37;3.40;;;1.40;;
59127;SDS011;44912;52.754;5.994;2024-03-02T02:44:03;4.53;;;1.50;;
59127;SDS011;44912;52.754;5.994;2024-03-02T02:46:28;3.13;;;1.23;;
59127;SDS011;44912;52.754;5.994;2024-03-02T02:48:54;2.22;;;0.93;;
59127;SDS011;44912;52.754;5.994;2024-03-02T02:51:19;3.50;;;1.63;;
59127;SDS011;44912;52.754;5.994;2024-03-02T02:53:45;3.22;;;1.20;;
59127;SDS011;44912;52.754;5.994;2024-03-02T02:56:11;3.17;;;1.30;;
59127;SDS011;44912;52.754;5.994;2024-03-02T02:58:37;4.55;;;1.45;;
59127;SDS011;44912;52.754;5.994;2024-03-02T03:01:02;5.22;;;1.40;;
59127;SDS011;44912;52.754;5.994;2024-03-02T03:03:28;3.55;;;1.40;;
59127;SDS011;44912;52.754;5.994;2024-03-02T03:05:55;5.00;;;1.25;;
59127;SDS011;44912;52.754;5.994;2024-03-02T03:08:20;3.38;;;1.30;;
59127;SDS011;44912;52.754;5.994;2024-03-02T03:10:48;3.83;;;1.50;;
59127;SDS011;44912;52.754;5.994;2024-03-02T03:13:14;3.17;;;1.20;;
59127;SDS011;44912;52.754;5.994;2024-03-02T03:15:40;3.60;;;1.42;;
59127;SDS011;44912;52.754;5.994;2024-03-02T03:18:05;3.67;;;1.42;;
59127;SDS011;44912;52.754;5.994;2024-03-02T03:20:32;3.70;;;1.30;;
59127;SDS011;44912;52.754;5.994;2024-03-02T03:22:58;3.22;;;1.95;;
59127;SDS011;44912;52.754;5.994;2024-03-02T03:25:24;1.65;;;1.25;;
59127;SDS011;44912;52.754;5.994;2024-03-02T03:27:50;3.72;;;1.38;;
59127;SDS011;44912;52.754;5.994;2024-03-02T03:30:17;5.30;;;1.38;;
59127;SDS011;44912;52.754;5.994;2024-03-02T03:32:43;3.28;;;1.60;;
59127;SDS011;44912;52.754;5.994;2024-03-02T03:35:09;2.78;;;1.40;;
59127;SDS011;44912;52.754;5.994;2024-03-02T03:37:34;3.97;;;1.58;;
59127;SDS011;44912;52.754;5.994;2024-03-02T03:40:03;3.08;;;1.33;;
59127;SDS011;44912;52.754;5.994;2024-03-02T03:42:38;4.05;;;1.50;;
59127;SDS011;44912;52.754;5.994;2024-03-02T03:45:04;3.40;;;1.30;;
59127;SDS011;44912;52.754;5.994;2024-03-02T03:47:33;4.13;;;1.50;;
59127;SDS011;44912;52.754;5.994;2024-03-02T03:49:59;3.80;;;1.25;;
59127;SDS011;44912;52.754;5.994;2024-03-02T03:52:24;2.90;;;1.20;;
59127;SDS011;44912;52.754;5.994;2024-03-02T03:54:50;4.57;;;1.00;;
59127;SDS011;44912;52.754;5.994;2024-03-02T03:57:16;2.90;;;1.00;;
59127;SDS011;44912;52.754;5.994;2024-03-02T03:59:42;4.63;;;1.02;;
59127;SDS011;44912;52.754;5.994;2024-03-02T04:02:08;2.80;;;1.00;;
59127;SDS011;44912;52.754;5.994;2024-03-02T04:04:34;2.83;;;0.95;;
59127;SDS011;44912;52.754;5.994;2024-03-02T04:07:00;2.28;;;1.10;;
59127;SDS011;44912;52.754;5.994;2024-03-02T04:09:26;2.53;;;1.10;;
59127;SDS011;44912;52.754;5.994;2024-03-02T04:11:52;4.60;;;1.27;;
59127;SDS011;44912;52.754;5.994;2024-03-02T04:14:18;2.08;;;0.88;;
59127;SDS011;44912;52.754;5.994;2024-03-02T04:16:43;1.45;;;0.80;;
59127;SDS011;44912;52.754;5.994;2024-03-02T04:19:09;1.08;;;0.60;;
59127;SDS011;44912;52.754;5.994;2024-03-02T04:21:35;2.50;;;0.60;;
59127;SDS011;44912;52.754;5.994;2024-03-02T04:24:00;0.80;;;0.50;;
59127;SDS011;44912;52.754;5.994;2024-03-02T04:26:26;0.75;;;0.50;;
59127;SDS011;44912;52.754;5.994;2024-03-02T04:28:52;0.77;;;0.50;;
59127;SDS011;44912;52.754;5.994;2024-03-02T04:31:18;0.80;;;0.60;;
59127;SDS011;44912;52.754;5.994;2024-03-02T04:33:45;1.95;;;0.52;;
59127;SDS011;44912;52.754;5.994;2024-03-02T04:36:10;0.68;;;0.45;;
59127;SDS011;44912;52.754;5.994;2024-03-02T04:38:37;1.25;;;0.60;;
59127;SDS011;44912;52.754;5.994;2024-03-02T04:41:06;1.10;;;0.57;;
59127;SDS011;44912;52.754;5.994;2024-03-02T04:43:32;1.48;;;0.70;;
59127;SDS011;44912;52.754;5.994;2024-03-02T04:45:58;1.00;;;0.57;;
59127;SDS011;44912;52.754;5.994;2024-03-02T04:48:25;1.10;;;0.60;;
59127;SDS011;44912;52.754;5.994;2024-03-02T04:50:50;1.13;;;0.50;;
59127;SDS011;44912;52.754;5.994;2024-03-02T04:53:16;1.42;;;0.60;;
59127;SDS011;44912;52.754;5.994;2024-03-02T04:55:41;1.10;;;0.50;;
59127;SDS011;44912;52.754;5.994;2024-03-02T04:58:07;0.95;;;0.60;;
59127;SDS011;44912;52.754;5.994;2024-03-02T05:00:33;0.85;;;0.60;;
59127;SDS011;44912;52.754;5.994;2024-03-02T05:02:59;1.33;;;0.60;;
59127;SDS011;44912;52.754;5.994;2024-03-02T05:05:25;0.98;;;0.60;;
59127;SDS011;44912;52.754;5.994;2024-03-02T05:07:51;1.63;;;0.70;;
59127;SDS011;44912;52.754;5.994;2024-03-02T05:10:17;0.88;;;0.60;;
59127;SDS011;44912;52.754;5.994;2024-03-02T05:12:42;0.50;;;0.50;;
59127;SDS011;44912;52.754;5.994;2024-03-02T05:15:12;1.92;;;0.60;;
59127;SDS011;44912;52.754;5.994;2024-03-02T05:17:39;1.25;;;0.60;;
59127;SDS011;44912;52.754;5.994;2024-03-02T05:20:06;1.73;;;0.70;;
59127;SDS011;44912;52.754;5.994;2024-03-02T05:22:35;1.05;;;0.50;;
59127;SDS011;44912;52.754;5.994;2024-03-02T05:25:02;0.80;;;0.60;;
59127;SDS011;44912;52.754;5.994;2024-03-02T05:27:28;1.77;;;0.55;;
59127;SDS011;44912;52.754;5.994;2024-03-02T05:29:54;0.70;;;0.50;;
59127;SDS011;44912;52.754;5.994;2024-03-02T05:32:19;0.90;;;0.60;;
59127;SDS011;44912;52.754;5.994;2024-03-02T05:34:45;1.98;;;0.50;;
59127;SDS011;44912;52.754;5.994;2024-03-02T05:37:11;1.08;;;0.70;;
59127;SDS011;44912;52.754;5.994;2024-03-02T05:39:37;0.60;;;0.60;;
59127;SDS011;44912;52.754;5.994;2024-03-02T05:42:02;1.80;;;0.70;;
59127;SDS011;44912;52.754;5.994;2024-03-02T05:44:28;0.60;;;0.43;;
59127;SDS011;44912;52.754;5.994;2024-03-02T05:46:54;2.03;;;0.70;;
59127;SDS011;44912;52.754;5.994;2024-03-02T05:49:20;0.77;;;0.70;;
59127;SDS011;44912;52.754;5.994;2024-03-02T05:51:46;0.90;;;0.70;;
59127;SDS011;44912;52.754;5.994;2024-03-02T05:54:12;1.42;;;0.70;;
59127;SDS011;44912;52.754;5.994;2024-03-02T05:56:37;1.00;;;0.68;;
59127;SDS011;44912;52.754;5.994;2024-03-02T05:59:03;1.13;;;0.70;;
59127;SDS011;44912;52.754;5.994;2024-03-02T06:06:39;0.63;;;0.60;;
59127;SDS011;44912;52.754;5.994;2024-03-02T06:09:06;0.90;;;0.60;;
59127;SDS011;44912;52.754;5.994;2024-03-02T06:11:40;1.58;;;0.90;;
59127;SDS011;44912;52.754;5.994;2024-03-02T06:14:07;0.70;;;0.60;;
59127;SDS011;44912;52.754;5.994;2024-03-02T06:16:33;1.88;;;0.70;;
59127;SDS011;44912;52.754;5.994;2024-03-02T06:18:59;1.60;;;0.70;;
59127;SDS011;44912;52.754;5.994;2024-03-02T06:21:26;0.70;;;0.60;;
59127;SDS011;44912;52.754;5.994;2024-03-02T06:23:52;0.70;;;0.60;;
59127;SDS011;44912;52.754;5.994;2024-03-02T06:26:18;2.13;;;0.70;;
59127;SDS011;44912;52.754;5.994;2024-03-02T06:28:44;3.42;;;0.70;;
59127;SDS011;44912;52.754;5.994;2024-03-02T06:31:10;1.98;;;0.60;;
59127;SDS011;44912;52.754;5.994;2024-03-02T06:33:36;1.80;;;0.90;;
59127;SDS011;44912;52.754;5.994;2024-03-02T06:36:02;1.98;;;0.90;;
59127;SDS011;44912;52.754;5.994;2024-03-02T06:38:28;6.90;;;2.67;;
59127;SDS011;44912;52.754;5.994;2024-03-02T06:40:54;38.63;;;17.90;;
59127;SDS011;44912;52.754;5.994;2024-03-02T06:43:22;71.70;;;34.80;;
59127;SDS011;44912;52.754;5.994;2024-03-02T06:45:48;56.38;;;26.40;;
59127;SDS011;44912;52.754;5.994;2024-03-02T06:48:17;26.13;;;11.57;;
59127;SDS011;44912;52.754;5.994;2024-03-02T06:50:48;23.50;;;10.27;;
59127;SDS011;44912;52.754;5.994;2024-03-02T06:53:14;13.18;;;6.05;;
59127;SDS011;44912;52.754;5.994;2024-03-02T06:55:45;12.75;;;5.15;;
59127;SDS011;44912;52.754;5.994;2024-03-02T06:58:14;12.68;;;5.03;;
59127;SDS011;44912;52.754;5.994;2024-03-02T07:00:43;11.88;;;4.60;;
59127;SDS011;44912;52.754;5.994;2024-03-02T07:03:09;10.27;;;4.07;;
59127;SDS011;44912;52.754;5.994;2024-03-02T07:05:35;7.03;;;2.72;;
59127;SDS011;44912;52.754;5.994;2024-03-02T07:08:01;6.10;;;1.83;;
59127;SDS011;44912;52.754;5.994;2024-03-02T07:10:27;4.25;;;1.50;;
59127;SDS011;44912;52.754;5.994;2024-03-02T07:12:53;1.08;;;0.80;;
59127;SDS011;44912;52.754;5.994;2024-03-02T07:15:19;1.95;;;0.70;;
59127;SDS011;44912;52.754;5.994;2024-03-02T07:17:53;3.13;;;1.08;;
59127;SDS011;44912;52.754;5.994;2024-03-02T07:20:19;2.05;;;0.90;;
59127;SDS011;44912;52.754;5.994;2024-03-02T07:22:44;3.63;;;1.33;;
59127;SDS011;44912;52.754;5.994;2024-03-02T07:25:10;6.72;;;2.28;;
59127;SDS011;44912;52.754;5.994;2024-03-02T07:27:36;8.43;;;3.08;;
59127;SDS011;44912;52.754;5.994;2024-03-02T07:30:02;9.02;;;3.10;;
59127;SDS011;44912;52.754;5.994;2024-03-02T07:32:28;4.13;;;1.27;;
59127;SDS011;44912;52.754;5.994;2024-03-02T07:34:54;2.00;;;0.88;;
59127;SDS011;44912;52.754;5.994;2024-03-02T07:37:20;2.35;;;0.88;;
59127;SDS011;44912;52.754;5.994;2024-03-02T07:39:47;1.30;;;0.80;;
59127;SDS011;44912;52.754;5.994;2024-03-02T07:42:12;1.35;;;0.73;;
59127;SDS011;44912;52.754;5.994;2024-03-02T07:44:38;1.58;;;0.90;;
59127;SDS011;44912;52.754;5.994;2024-03-02T07:47:04;3.53;;;1.50;;
59127;SDS011;44912;52.754;5.994;2024-03-02T07:49:30;25.00;;;10.20;;
59127;SDS011;44912;52.754;5.994;2024-03-02T07:51:55;24.63;;;9.32;;
59127;SDS011;44912;52.754;5.994;2024-03-02T07:54:21;34.67;;;14.30;;
59127;SDS011;44912;52.754;5.994;2024-03-02T07:56:46;40.83;;;17.60;;
59127;SDS011;44912;52.754;5.994;2024-03-02T07:59:12;20.48;;;7.82;;
59127;SDS011;44912;52.754;5.994;2024-03-02T08:01:38;7.68;;;2.67;;
59127;SDS011;44912;52.754;5.994;2024-03-02T08:04:04;4.70;;;1.63;;
59127;SDS011;44912;52.754;5.994;2024-03-02T08:06:29;2.03;;;0.80;;
59127;SDS011;44912;52.754;5.994;2024-03-02T08:08:59;3.60;;;1.00;;
59127;SDS011;44912;52.754;5.994;2024-03-02T08:11:25;1.88;;;0.80;;
59127;SDS011;44912;52.754;5.994;2024-03-02T08:13:56;2.50;;;0.80;;
59127;SDS011;44912;52.754;5.994;2024-03-02T08:16:24;2.70;;;0.90;;
59127;SDS011;44912;52.754;5.994;2024-03-02T08:18:50;2.33;;;1.13;;
59127;SDS011;44912;52.754;5.994;2024-03-02T08:21:17;1.70;;;0.70;;
59127;SDS011;44912;52.754;5.994;2024-03-02T08:23:43;1.92;;;0.60;;
59127;SDS011;44912;52.754;5.994;2024-03-02T08:26:09;2.00;;;0.80;;
59127;SDS011;44912;52.754;5.994;2024-03-02T08:28:35;2.88;;;0.80;;
59127;SDS011;44912;52.754;5.994;2024-03-02T08:31:07;1.45;;;0.60;;
59127;SDS011;44912;52.754;5.994;2024-03-02T08:33:33;1.48;;;0.60;;
59127;SDS011;44912;52.754;5.994;2024-03-02T08:35:59;2.03;;;0.60;;
59127;SDS011;44912;52.754;5.994;2024-03-02T08:38:25;3.60;;;0.75;;
59127;SDS011;44912;52.754;5.994;2024-03-02T08:40:51;2.03;;;0.60;;
59127;SDS011;44912;52.754;5.994;2024-03-02T08:43:17;1.20;;;0.60;;
59127;SDS011;44912;52.754;5.994;2024-03-02T08:45:43;3.42;;;0.88;;
59127;SDS011;44912;52.754;5.994;2024-03-02T08:48:09;4.13;;;0.85;;
59127;SDS011;44912;52.754;5.994;2024-03-02T08:50:35;2.83;;;0.60;;
59127;SDS011;44912;52.754;5.994;2024-03-02T08:53:02;3.00;;;0.60;;
59127;SDS011;44912;52.754;5.994;2024-03-02T08:55:30;2.28;;;0.70;;
59127;SDS011;44912;52.754;5.994;2024-03-02T08:57:56;2.60;;;0.60;;
59127;SDS011;44912;52.754;5.994;2024-03-02T09:00:22;1.90;;;0.50;;
59127;SDS011;44912;52.754;5.994;2024-03-02T09:02:48;3.00;;;0.90;;
59127;SDS011;44912;52.754;5.994;2024-03-02T09:05:14;3.78;;;0.70;;
59127;SDS011;44912;52.754;5.994;2024-03-02T09:07:40;2.03;;;0.95;;
59127;SDS011;44912;52.754;5.994;2024-03-02T09:10:06;2.03;;;0.80;;
59127;SDS011;44912;52.754;5.994;2024-03-02T09:12:32;4.15;;;1.05;;
59127;SDS011;44912;52.754;5.994;2024-03-02T09:14:59;5.55;;;1.30;;
59127;SDS011;44912;52.754;5.994;2024-03-02T09:17:26;3.92;;;1.00;;
59127;SDS011;44912;52.754;5.994;2024-03-02T09:19:52;1.60;;;0.70;;
59127;SDS011;44912;52.754;5.994;2024-03-02T09:22:21;2.25;;;0.80;;
59127;SDS011;44912;52.754;5.994;2024-03-02T09:24:47;2.40;;;1.00;;
59127;SDS011;44912;52.754;5.994;2024-03-02T09:27:12;2.67;;;0.80;;
59127;SDS011;44912;52.754;5.994;2024-03-02T09:29:38;3.50;;;1.00;;
59127;SDS011;44912;52.754;5.994;2024-03-02T09:32:04;2.33;;;0.80;;
59127;SDS011;44912;52.754;5.994;2024-03-02T09:34:31;4.10;;;1.20;;
59127;SDS011;44912;52.754;5.994;2024-03-02T09:36:57;3.70;;;0.90;;
59127;SDS011;44912;52.754;5.994;2024-03-02T09:39:23;3.35;;;0.75;;
59127;SDS011;44912;52.754;5.994;2024-03-02T09:41:50;2.83;;;0.90;;
59127;SDS011;44912;52.754;5.994;2024-03-02T09:44:16;4.68;;;1.38;;
59127;SDS011;44912;52.754;5.994;2024-03-02T09:46:41;4.35;;;1.10;;
59127;SDS011;44912;52.754;5.994;2024-03-02T09:49:09;2.85;;;0.90;;
59127;SDS011;44912;52.754;5.994;2024-03-02T09:51:38;4.78;;;0.93;;
59127;SDS011;44912;52.754;5.994;2024-03-02T09:54:04;3.75;;;0.75;;
59127;SDS011;44912;52.754;5.994;2024-03-02T09:56:32;4.40;;;1.08;;
59127;SDS011;44912;52.754;5.994;2024-03-02T09:58:57;4.45;;;1.30;;
59127;SDS011;44912;52.754;5.994;2024-03-02T10:01:24;3.33;;;0.93;;
59127;SDS011;44912;52.754;5.994;2024-03-02T10:03:49;3.47;;;0.75;;
59127;SDS011;44912;52.754;5.994;2024-03-02T10:06:22;4.43;;;1.30;;
59127;SDS011;44912;52.754;5.994;2024-03-02T10:08:50;3.93;;;1.03;;
59127;SDS011;44912;52.754;5.994;2024-03-02T10:11:25;4.95;;;1.38;;
59127;SDS011;44912;52.754;5.994;2024-03-02T10:14:03;4.53;;;1.10;;
59127;SDS011;44912;52.754;5.994;2024-03-02T10:16:39;2.47;;;0.80;;
59127;SDS011;44912;52.754;5.994;2024-03-02T10:19:22;6.25;;;1.50;;
59127;SDS011;44912;52.754;5.994;2024-03-02T10:24:15;9.43;;;2.13;;
59127;SDS011;44912;52.754;5.994;2024-03-02T10:26:45;4.88;;;1.60;;
59127;SDS011;44912;52.754;5.994;2024-03-02T10:29:11;8.40;;;2.25;;
59127;SDS011;44912;52.754;5.994;2024-03-02T10:31:38;6.32;;;1.90;;
59127;SDS011;44912;52.754;5.994;2024-03-02T10:34:05;5.15;;;1.45;;
59127;SDS011;44912;52.754;5.994;2024-03-02T10:36:32;5.18;;;1.30;;
59127;SDS011;44912;52.754;5.994;2024-03-02T10:39:04;5.50;;;0.90;;
59127;SDS011;44912;52.754;5.994;2024-03-02T10:41:32;2.72;;;0.90;;
59127;SDS011;44912;52.754;5.994;2024-03-02T10:44:06;3.20;;;1.00;;
59127;SDS011;44912;52.754;5.994;2024-03-02T10:46:34;4.50;;;1.00;;
59127;SDS011;44912;52.754;5.994;2024-03-02T10:49:02;2.97;;;0.70;;
59127;SDS011;44912;52.754;5.994;2024-03-02T10:51:33;3.30;;;0.80;;
59127;SDS011;44912;52.754;5.994;2024-03-02T10:54:01;3.13;;;1.05;;
59127;SDS011;44912;52.754;5.994;2024-03-02T10:56:31;5.63;;;1.05;;
59127;SDS011;44912;52.754;5.994;2024-03-02T11:01:31;1.90;;;0.50;;
59127;SDS011;44912;52.754;5.994;2024-03-02T11:03:58;2.42;;;0.75;;
59127;SDS011;44912;52.754;5.994;2024-03-02T11:06:24;2.60;;;0.70;;
59127;SDS011;44912;52.754;5.994;2024-03-02T11:08:53;2.85;;;0.55;;
59127;SDS011;44912;52.754;5.994;2024-03-02T11:11:26;4.07;;;0.80;;
59127;SDS011;44912;52.754;5.994;2024-03-02T11:13:55;4.45;;;1.10;;
59127;SDS011;44912;52.754;5.994;2024-03-02T11:16:36;4.53;;;0.90;;
59127;SDS011;44912;52.754;5.994;2024-03-02T11:19:10;3.50;;;0.93;;
59127;SDS011;44912;52.754;5.994;2024-03-02T11:21:37;4.63;;;0.77;;
59127;SDS011;44912;52.754;5.994;2024-03-02T11:26:52;3.38;;;0.65;;
59127;SDS011;44912;52.754;5.994;2024-03-02T11:29:51;3.58;;;0.70;;
59127;SDS011;44912;52.754;5.994;2024-03-02T11:32:14;4.72;;;0.90;;
59127;SDS011;44912;52.754;5.994;2024-03-02T11:34:49;4.70;;;0.85;;
59127;SDS011;44912;52.754;5.994;2024-03-02T11:37:16;4.38;;;1.08;;
59127;SDS011;44912;52.754;5.994;2024-03-02T11:39:46;3.92;;;1.10;;
59127;SDS011;44912;52.754;5.994;2024-03-02T11:42:14;1.52;;;0.60;;
59127;SDS011;44912;52.754;5.994;2024-03-02T11:44:47;3.92;;;0.80;;
59127;SDS011;44912;52.754;5.994;2024-03-02T11:47:16;2.22;;;0.60;;
59127;SDS011;44912;52.754;5.994;2024-03-02T11:49:49;4.50;;;1.05;;
59127;SDS011;44912;52.754;5.994;2024-03-02T11:52:19;6.70;;;1.85;;
59127;SDS011;44912;52.754;5.994;2024-03-02T11:54:47;6.90;;;1.50;;
59127;SDS011;44912;52.754;5.994;2024-03-02T11:57:20;4.38;;;1.00;;
59127;SDS011;44912;52.754;5.994;2024-03-02T11:59:47;4.95;;;1.00;;
59127;SDS011;44912;52.754;5.994;2024-03-02T12:02:17;4.70;;;1.25;;
59127;SDS011;44912;52.754;5.994;2024-03-02T12:04:47;3.83;;;0.88;;
59127;SDS011;44912;52.754;5.994;2024-03-02T12:07:18;5.63;;;1.10;;
59127;SDS011;44912;52.754;5.994;2024-03-02T12:09:46;3.15;;;0.80;;
59127;SDS011;44912;52.754;5.994;2024-03-02T12:12:12;3.95;;;0.80;;
59127;SDS011;44912;52.754;5.994;2024-03-02T12:14:49;3.40;;;1.02;;
59127;SDS011;44912;52.754;5.994;2024-03-02T12:17:15;5.63;;;1.10;;
59127;SDS011;44912;52.754;5.994;2024-03-02T12:19:41;4.85;;;0.90;;
59127;SDS011;44912;52.754;5.994;2024-03-02T12:22:07;4.78;;;1.10;;
59127;SDS011;44912;52.754;5.994;2024-03-02T12:24:32;3.05;;;0.90;;
59127;SDS011;44912;52.754;5.994;2024-03-02T12:26:58;3.03;;;0.88;;
59127;SDS011;44912;52.754;5.994;2024-03-02T12:29:24;3.42;;;0.80;;
59127;SDS011;44912;52.754;5.994;2024-03-02T12:31:51;3.85;;;0.90;;
59127;SDS011;44912;52.754;5.994;2024-03-02T12:34:20;5.57;;;1.42;;
59127;SDS011;44912;52.754;5.994;2024-03-02T12:36:46;5.35;;;1.60;;
59127;SDS011;44912;52.754;5.994;2024-03-02T12:39:14;6.10;;;1.10;;
59127;SDS011;44912;52.754;5.994;2024-03-02T12:41:41;4.78;;;1.25;;
59127;SDS011;44912;52.754;5.994;2024-03-02T12:44:07;5.30;;;1.15;;
59127;SDS011;44912;52.754;5.994;2024-03-02T12:46:33;5.55;;;0.88;;
59127;SDS011;44912;52.754;5.994;2024-03-02T12:49:08;7.22;;;1.42;;
59127;SDS011;44912;52.754;5.994;2024-03-02T12:51:35;3.42;;;1.10;;
59127;SDS011;44912;52.754;5.994;2024-03-02T12:54:01;5.30;;;1.20;;
59127;SDS011;44912;52.754;5.994;2024-03-02T12:56:28;5.70;;;1.20;;
59127;SDS011;44912;52.754;5.994;2024-03-02T12:58:55;5.07;;;1.20;;
59127;SDS011;44912;52.754;5.994;2024-03-02T13:01:20;3.15;;;1.00;;
59127;SDS011;44912;52.754;5.994;2024-03-02T13:03:49;3.17;;;0.90;;
59127;SDS011;44912;52.754;5.994;2024-03-02T13:06:16;7.60;;;1.90;;
59127;SDS011;44912;52.754;5.994;2024-03-02T13:08:42;5.25;;;1.60;;
59127;SDS011;44912;52.754;5.994;2024-03-02T13:11:09;3.22;;;1.23;;
59127;SDS011;44912;52.754;5.994;2024-03-02T13:13:35;4.15;;;0.93;;
59127;SDS011;44912;52.754;5.994;2024-03-02T13:16:01;3.58;;;1.00;;
59127;SDS011;44912;52.754;5.994;2024-03-02T13:18:28;3.63;;;0.98;;
59127;SDS011;44912;52.754;5.994;2024-03-02T13:20:54;2.17;;;0.90;;
59127;SDS011;44912;52.754;5.994;2024-03-02T13:23:21;4.35;;;1.10;;
59127;SDS011;44912;52.754;5.994;2024-03-02T13:25:46;4.75;;;1.02;;
59127;SDS011;44912;52.754;5.994;2024-03-02T13:28:12;5.03;;;1.67;;
59127;SDS011;44912;52.754;5.994;2024-03-02T13:30:38;5.90;;;1.60;;
59127;SDS011;44912;52.754;5.994;2024-03-02T13:33:04;4.47;;;1.10;;
59127;SDS011;44912;52.754;5.994;2024-03-02T13:35:30;4.20;;;1.10;;
59127;SDS011;44912;52.754;5.994;2024-03-02T13:37:55;3.22;;;0.68;;
59127;SDS011;44912;52.754;5.994;2024-03-02T13:40:21;4.05;;;0.90;;
59127;SDS011;44912;52.754;5.994;2024-03-02T13:42:48;3.55;;;0.88;;
59127;SDS011;44912;52.754;5.994;2024-03-02T13:45:16;2.65;;;0.68;;
59127;SDS011;44912;52.754;5.994;2024-03-02T13:47:43;3.92;;;1.10;;
59127;SDS011;44912;52.754;5.994;2024-03-02T13:50:09;2.28;;;0.77;;
59127;SDS011;44912;52.754;5.994;2024-03-02T13:52:35;4.25;;;1.00;;
59127;SDS011;44912;52.754;5.994;2024-03-02T13:55:00;1.67;;;0.80;;
59127;SDS011;44912;52.754;5.994;2024-03-02T13:57:26;2.28;;;0.68;;
59127;SDS011;44912;52.754;5.994;2024-03-02T13:59:53;3.00;;;0.80;;
59127;SDS011;44912;52.754;5.994;2024-03-02T14:02:19;3.80;;;0.98;;
59127;SDS011;44912;52.754;5.994;2024-03-02T14:04:45;3.17;;;0.80;;
59127;SDS011;44912;52.754;5.994;2024-03-02T14:07:13;3.03;;;1.08;;
59127;SDS011;44912;52.754;5.994;2024-03-02T14:09:39;3.10;;;0.98;;
59127;SDS011;44912;52.754;5.994;2024-03-02T14:12:04;4.88;;;1.55;;
59127;SDS011;44912;52.754;5.994;2024-03-02T14:14:31;3.58;;;1.30;;
59127;SDS011;44912;52.754;5.994;2024-03-02T14:16:56;4.45;;;1.38;;
59127;SDS011;44912;52.754;5.994;2024-03-02T14:19:25;5.10;;;1.42;;
59127;SDS011;44912;52.754;5.994;2024-03-02T14:21:51;2.83;;;1.10;;
59127;SDS011;44912;52.754;5.994;2024-03-02T14:24:17;3.72;;;1.00;;
59127;SDS011;44912;52.754;5.994;2024-03-02T14:26:43;3.33;;;0.90;;
59127;SDS011;44912;52.754;5.994;2024-03-02T14:29:08;3.13;;;0.95;;
59127;SDS011;44912;52.754;5.994;2024-03-02T14:31:34;3.03;;;1.10;;
59127;SDS011;44912;52.754;5.994;2024-03-02T14:34:00;3.10;;;1.08;;
59127;SDS011;44912;52.754;5.994;2024-03-02T14:36:27;3.60;;;1.25;;
59127;SDS011;44912;52.754;5.994;2024-03-02T14:38:53;3.47;;;1.40;;
59127;SDS011;44912;52.754;5.994;2024-03-02T14:41:19;3.80;;;1.40;;
59127;SDS011;44912;52.754;5.994;2024-03-02T14:43:44;2.53;;;1.08;;
59127;SDS011;44912;52.754;5.994;2024-03-02T14:46:10;3.00;;;1.30;;
59127;SDS011;44912;52.754;5.994;2024-03-02T14:48:37;4.25;;;1.30;;
59127;SDS011;44912;52.754;5.994;2024-03-02T14:51:03;3.50;;;1.30;;
59127;SDS011;44912;52.754;5.994;2024-03-02T14:53:29;2.75;;;1.40;;
59127;SDS011;44912;52.754;5.994;2024-03-02T14:55:55;3.63;;;1.20;;
59127;SDS011;44912;52.754;5.994;2024-03-02T14:58:20;4.40;;;1.20;;
59127;SDS011;44912;52.754;5.994;2024-03-02T15:00:46;3.38;;;1.25;;
59127;SDS011;44912;52.754;5.994;2024-03-02T15:03:12;2.50;;;1.15;;
59127;SDS011;44912;52.754;5.994;2024-03-02T15:05:38;5.20;;;1.60;;